createdAt,value
2022-08-20T00:02:13.277Z,23.70
2022-08-20T00:07:12.800Z,23.60
2022-08-20T00:12:14.388Z,23.40
2022-08-20T00:17:13.054Z,23.30
2022-08-20T00:22:12.353Z,23.20
2022-08-20T00:27:11.494Z,23.10
2022-08-20T00:32:12.129Z,23.00
2022-08-20T00:37:11.103Z,23.00
2022-08-20T00:42:11.590Z,22.90
2022-08-20T00:47:10.692Z,22.90
2022-08-20T00:52:15.727Z,22.80
2022-08-20T00:57:28.028Z,22.70
2022-08-20T01:02:43.431Z,22.60
2022-08-20T01:07:42.818Z,22.50
2022-08-20T01:12:46.644Z,22.50
2022-08-20T01:17:50.840Z,22.50
2022-08-20T01:23:31.597Z,22.40
2022-08-20T01:28:39.277Z,22.40
2022-08-20T01:33:39.053Z,22.30
2022-08-20T01:38:39.454Z,22.20
2022-08-20T01:43:38.980Z,22.20
2022-08-20T01:48:39.839Z,22.10
2022-08-20T01:53:45.363Z,22.02
2022-08-20T01:58:51.493Z,22.00
2022-08-20T02:03:57.330Z,22.00
2022-08-20T02:09:00.319Z,21.90
2022-08-20T02:14:00.542Z,21.80
2022-08-20T02:19:10.118Z,21.80
2022-08-20T02:24:11.080Z,21.70
2022-08-20T02:29:13.753Z,21.66
2022-08-20T02:34:22.713Z,21.60
2022-08-20T02:39:21.659Z,21.54
2022-08-20T02:44:21.851Z,21.50
2022-08-20T02:49:21.396Z,21.40
2022-08-20T02:54:20.689Z,21.30
2022-08-20T02:59:20.169Z,21.30
2022-08-20T03:04:19.082Z,21.26
2022-08-20T03:09:23.774Z,21.20
2022-08-20T03:14:22.341Z,21.20
2022-08-20T03:19:21.177Z,21.20
2022-08-20T03:24:20.337Z,21.20
2022-08-20T03:29:18.592Z,21.20
2022-08-20T03:34:17.461Z,21.14
2022-08-20T03:39:16.893Z,21.10
2022-08-20T03:44:16.366Z,21.10
2022-08-20T03:49:16.918Z,21.10
2022-08-20T03:54:15.477Z,21.10
2022-08-20T03:59:14.732Z,21.20
2022-08-20T04:04:14.289Z,21.20
2022-08-20T04:09:13.173Z,21.28
2022-08-20T04:14:17.432Z,21.30
2022-08-20T04:19:18.168Z,21.30
2022-08-20T04:24:22.614Z,21.36
2022-08-20T04:29:35.271Z,21.42
2022-08-20T04:34:34.374Z,21.50
2022-08-20T04:39:34.456Z,21.54
2022-08-20T04:44:33.468Z,21.60
2022-08-20T04:49:32.742Z,21.70
2022-08-20T04:54:31.592Z,21.80
2022-08-20T04:59:30.588Z,21.90
2022-08-20T05:04:29.712Z,22.00
2022-08-20T05:09:28.541Z,22.08
2022-08-20T05:14:28.073Z,22.10
2022-08-20T05:19:29.220Z,22.20
2022-08-20T05:24:28.806Z,22.20
2022-08-20T05:29:29.069Z,22.26
2022-08-20T05:34:28.241Z,22.30
2022-08-20T05:39:27.469Z,22.40
2022-08-20T05:44:25.909Z,22.48
2022-08-20T05:49:25.815Z,22.50
2022-08-20T05:54:25.152Z,22.60
2022-08-20T05:59:24.457Z,22.70
2022-08-20T06:04:28.260Z,22.82
2022-08-20T06:09:32.028Z,23.00
2022-08-20T06:14:33.784Z,23.10
2022-08-20T06:19:33.301Z,23.24
2022-08-20T06:24:32.539Z,23.40
2022-08-20T06:29:33.330Z,23.50
2022-08-20T06:34:32.220Z,23.70
2022-08-20T06:39:32.351Z,23.80
2022-08-20T06:44:31.944Z,24.00
2022-08-20T06:49:35.274Z,24.20
2022-08-20T06:54:35.584Z,24.40
2022-08-20T06:59:34.344Z,24.50
2022-08-20T07:04:33.002Z,24.60
2022-08-20T07:09:32.006Z,24.80
2022-08-20T07:14:32.095Z,24.88
2022-08-20T07:19:31.616Z,25.00
2022-08-20T07:24:33.283Z,25.10
2022-08-20T07:29:47.641Z,25.20
2022-08-20T07:34:46.923Z,25.40
2022-08-20T07:39:51.514Z,25.50
2022-08-20T07:44:51.234Z,25.70
2022-08-20T07:49:50.140Z,25.80
2022-08-20T07:54:49.259Z,26.00
2022-08-20T07:59:48.986Z,26.10
2022-08-20T08:04:48.323Z,26.26
2022-08-20T08:09:48.891Z,26.48
2022-08-20T08:14:50.147Z,26.72
2022-08-20T08:19:53.185Z,27.00
2022-08-20T08:24:57.088Z,27.16
2022-08-20T08:29:56.774Z,27.20
2022-08-20T08:34:55.472Z,27.30
2022-08-20T08:39:56.049Z,27.44
2022-08-20T08:44:55.913Z,27.60
2022-08-20T08:50:00.799Z,27.70
2022-08-20T08:55:03.594Z,27.80
2022-08-20T09:00:10.171Z,27.90
2022-08-20T09:05:19.229Z,27.80
2022-08-20T09:10:23.196Z,27.80
2022-08-20T09:15:24.248Z,27.78
2022-08-20T09:20:26.920Z,27.80
2022-08-20T09:25:27.006Z,28.00
2022-08-20T09:30:27.300Z,28.22
2022-08-20T09:35:26.449Z,28.50
2022-08-20T09:40:25.979Z,28.80
2022-08-20T09:45:25.776Z,29.20
2022-08-20T09:50:24.362Z,29.60
2022-08-20T09:55:32.262Z,29.80
2022-08-20T10:00:32.143Z,30.00
2022-08-20T10:05:31.760Z,30.14
2022-08-20T10:10:30.999Z,30.46
2022-08-20T10:15:30.738Z,30.80
2022-08-20T10:20:30.362Z,31.08
2022-08-20T10:25:30.021Z,31.30
2022-08-20T10:30:29.605Z,31.60
2022-08-20T10:35:29.483Z,31.88
2022-08-20T10:40:28.861Z,32.20
2022-08-20T10:45:29.144Z,32.52
2022-08-20T10:50:30.482Z,32.70
2022-08-20T10:55:30.056Z,33.00
2022-08-20T11:00:33.856Z,33.26
2022-08-20T11:05:33.942Z,33.30
2022-08-20T11:10:36.934Z,33.30
2022-08-20T11:15:43.447Z,33.40
2022-08-20T11:20:42.297Z,33.60
2022-08-20T11:25:41.292Z,33.78
2022-08-20T11:30:41.911Z,33.90
2022-08-20T11:35:48.852Z,34.26
2022-08-20T11:40:48.975Z,34.70
2022-08-20T11:45:51.104Z,35.08
2022-08-20T11:50:50.940Z,35.46
2022-08-20T11:55:50.152Z,35.80
2022-08-20T12:00:49.628Z,35.90
2022-08-20T12:05:50.230Z,36.10
2022-08-20T12:10:49.522Z,36.50
2022-08-20T12:15:50.266Z,36.78
2022-08-20T12:20:48.920Z,37.10
2022-08-20T12:25:49.802Z,37.50
2022-08-20T12:30:48.786Z,37.70
